createdAt,value
2023-01-21T00:00:57.750Z,99872.63
2023-01-21T00:03:24.645Z,99877.22
2023-01-21T00:05:51.439Z,99885.41
2023-01-21T00:08:17.932Z,99881.84
2023-01-21T00:10:44.584Z,99888.03
2023-01-21T00:13:11.167Z,99890.03
2023-01-21T00:15:37.823Z,99891.91
2023-01-21T00:18:04.248Z,99895.59
2023-01-21T00:20:30.829Z,99911.53
2023-01-21T00:22:57.507Z,99901.16
2023-01-21T00:25:24.033Z,99907.38
2023-01-21T00:27:50.967Z,99921.19
2023-01-21T00:30:17.852Z,99922.44
2023-01-21T00:32:44.587Z,99923.63
2023-01-21T00:35:10.977Z,99942.47
2023-01-21T00:37:37.513Z,99940.09
2023-01-21T00:40:05.808Z,99938.47
2023-01-21T00:42:32.268Z,99948.13
2023-01-21T00:44:59.827Z,99950.88
2023-01-21T00:47:26.556Z,99947.56
2023-01-21T00:49:53.048Z,99953.78
2023-01-21T00:52:19.548Z,99954.00
2023-01-21T00:54:46.098Z,99964.53
2023-01-21T00:57:13.790Z,99958.63
2023-01-21T00:59:40.441Z,99969.25
2023-01-21T01:02:07.112Z,99964.19
2023-01-21T01:04:33.648Z,99975.06
2023-01-21T01:07:01.423Z,99972.47
2023-01-21T01:09:28.111Z,99985.69
2023-01-21T01:11:54.570Z,99982.09
2023-01-21T01:14:22.173Z,99979.50
2023-01-21T01:16:49.462Z,99987.56
2023-01-21T01:19:16.775Z,99990.28
2023-01-21T01:21:43.338Z,99991.16
2023-01-21T01:24:09.928Z,100000.00
2023-01-21T01:26:36.484Z,99998.34
2023-01-21T01:29:04.373Z,100000.97
2023-01-21T01:31:30.792Z,99991.59
2023-01-21T01:33:57.749Z,100004.88
2023-01-21T01:36:24.854Z,100006.00
2023-01-21T01:38:52.821Z,100006.81
2023-01-21T01:41:22.560Z,100012.84
2023-01-21T01:43:48.998Z,100026.75
2023-01-21T01:46:15.785Z,100026.78
2023-01-21T01:48:46.964Z,100032.03
2023-01-21T01:51:16.577Z,100041.63
2023-01-21T01:53:46.639Z,100052.09
2023-01-21T01:56:14.300Z,100056.56
2023-01-21T01:58:41.599Z,100048.53
2023-01-21T02:01:08.033Z,100064.41
2023-01-21T02:03:44.279Z,100073.13
2023-01-21T02:06:15.552Z,100075.78
2023-01-21T02:08:44.801Z,100074.94
2023-01-21T02:11:16.913Z,100074.00
2023-01-21T02:13:46.604Z,100084.44
2023-01-21T02:16:28.308Z,100085.31
2023-01-21T02:19:07.115Z,100085.22
2023-01-21T02:21:54.702Z,100085.38
2023-01-21T02:24:49.141Z,100080.97
2023-01-21T02:27:31.057Z,100087.16
2023-01-21T02:30:12.931Z,100102.94
2023-01-21T02:33:10.872Z,100103.84
2023-01-21T02:36:16.239Z,100102.94
2023-01-21T02:38:48.613Z,100096.81
2023-01-21T02:41:38.343Z,100106.38
2023-01-21T02:44:21.245Z,100107.25
2023-01-21T02:46:55.478Z,100111.13
2023-01-21T02:49:29.052Z,100112.00
2023-01-21T02:51:55.651Z,100108.59
2023-01-21T02:54:40.501Z,100121.00
2023-01-21T02:57:09.219Z,100114.88
2023-01-21T02:59:37.508Z,100124.56
2023-01-21T03:02:09.748Z,100122.59
2023-01-21T03:04:49.084Z,100135.44
2023-01-21T03:07:41.444Z,100139.03
2023-01-21T03:10:22.213Z,100139.91
2023-01-21T03:12:53.801Z,100149.69
2023-01-21T03:15:53.457Z,100155.84
2023-01-21T03:18:41.264Z,100159.22
2023-01-21T03:21:13.092Z,100163.72
2023-01-21T03:23:43.910Z,100169.09
2023-01-21T03:26:14.627Z,100168.41
2023-01-21T03:28:46.046Z,100168.41
2023-01-21T03:31:19.171Z,100168.47
2023-01-21T03:33:48.744Z,100162.47
2023-01-21T03:36:55.325Z,100160.72
2023-01-21T03:39:29.004Z,100166.84
2023-01-21T03:41:55.761Z,100166.00
2023-01-21T03:44:22.278Z,100166.06
2023-01-21T03:47:08.310Z,100178.47
2023-01-21T03:49:44.076Z,100184.59
2023-01-21T03:52:14.040Z,100187.25
2023-01-21T03:54:41.112Z,100182.94
2023-01-21T03:57:07.706Z,100186.53
2023-01-21T03:59:34.112Z,100190.72
2023-01-21T04:02:00.661Z,100190.72
2023-01-21T04:04:27.140Z,100190.72
2023-01-21T04:06:53.659Z,100195.25
2023-01-21T04:09:20.409Z,100196.22
2023-01-21T04:11:46.856Z,100195.34
2023-01-21T04:14:13.442Z,100194.53
2023-01-21T04:16:39.876Z,100186.66
2023-01-21T04:19:06.403Z,100189.25
2023-01-21T04:21:32.772Z,100204.16
2023-01-21T04:23:59.256Z,100198.91
2023-01-21T04:26:25.694Z,100202.41
2023-01-21T04:28:52.098Z,100198.06
2023-01-21T04:31:18.778Z,100205.88
2023-01-21T04:33:45.189Z,100205.19
2023-01-21T04:36:11.756Z,100206.03
2023-01-21T04:38:38.152Z,100203.44
2023-01-21T04:41:04.798Z,100211.31
2023-01-21T04:43:31.186Z,100225.41
2023-01-21T04:45:57.656Z,100230.75
2023-01-21T04:48:24.108Z,100219.53
2023-01-21T04:50:50.596Z,100228.28
2023-01-21T04:53:16.996Z,100222.22
2023-01-21T04:55:43.451Z,100219.69
2023-01-21T04:58:09.827Z,100233.69
2023-01-21T05:00:36.380Z,100231.06
2023-01-21T05:03:02.824Z,100236.47
2023-01-21T05:05:29.441Z,100239.97
2023-01-21T05:07:55.808Z,100235.69
2023-01-21T05:10:22.426Z,100244.41
2023-01-21T05:12:48.958Z,100236.69
2023-01-21T05:15:15.752Z,100240.13
2023-01-21T05:17:42.520Z,100249.78
2023-01-21T05:20:10.060Z,100247.19
2023-01-21T05:22:36.719Z,100247.19
2023-01-21T05:25:03.631Z,100256.00
2023-01-21T05:27:30.094Z,100253.38
2023-01-21T05:29:57.153Z,100267.34
2023-01-21T05:32:24.197Z,100263.03
2023-01-21T05:34:51.778Z,100261.38
2023-01-21T05:37:18.215Z,100273.63
2023-01-21T05:39:44.776Z,100269.28
2023-01-21T05:42:11.309Z,100282.41
2023-01-21T05:44:37.933Z,100286.84
2023-01-21T05:47:04.697Z,100290.34
2023-01-21T05:49:31.152Z,100287.75
2023-01-21T05:51:57.770Z,100285.16
2023-01-21T05:54:24.146Z,100293.03
2023-01-21T05:56:50.781Z,100293.13
2023-01-21T05:59:17.195Z,100306.19
2023-01-21T06:01:43.744Z,100307.91
2023-01-21T06:04:10.188Z,100312.25
2023-01-21T06:06:36.631Z,100314.03
2023-01-21T06:09:03.337Z,100312.28
2023-01-21T06:11:29.807Z,100318.31
2023-01-21T06:13:56.319Z,100321.88
2023-01-21T06:16:22.728Z,100322.75
2023-01-21T06:18:49.348Z,100329.75
2023-01-21T06:21:15.739Z,100326.31
2023-01-21T06:23:42.848Z,100337.63
2023-01-21T06:26:09.317Z,100335.00
2023-01-21T06:28:35.727Z,100341.94
2023-01-21T06:31:02.717Z,100345.44
2023-01-21T06:33:29.235Z,100351.59
2023-01-21T06:35:55.790Z,100349.84
2023-01-21T06:38:22.224Z,100357.69
2023-01-21T06:40:48.772Z,100351.59
2023-01-21T06:43:15.296Z,100362.97
2023-01-21T06:45:41.773Z,100363.00
2023-01-21T06:48:08.161Z,100360.41
2023-01-21T06:50:34.701Z,100374.34
2023-01-21T06:53:01.143Z,100370.88
2023-01-21T06:55:27.601Z,100385.72
2023-01-21T06:57:54.007Z,100386.53
2023-01-21T07:00:21.036Z,100379.59
2023-01-21T07:02:47.516Z,100388.28
2023-01-21T07:05:15.553Z,100394.41
2023-01-21T07:07:42.222Z,100398.84
2023-01-21T07:10:09.568Z,100401.47
2023-01-21T07:12:35.938Z,100400.63
2023-01-21T07:15:02.523Z,100400.63
2023-01-21T07:17:28.982Z,100400.66
2023-01-21T07:19:55.531Z,100401.56
2023-01-21T07:22:22.042Z,100401.56
2023-01-21T07:24:48.685Z,100412.88
2023-01-21T07:27:16.126Z,100411.09
2023-01-21T07:29:42.771Z,100417.16
2023-01-21T07:32:10.417Z,100420.63
2023-01-21T07:34:37.690Z,100418.94
2023-01-21T07:37:05.355Z,100421.56
2023-01-21T07:39:31.813Z,100433.75
2023-01-21T07:41:58.342Z,100426.78
2023-01-21T07:44:24.768Z,100431.16
2023-01-21T07:46:52.989Z,100428.56
2023-01-21T07:49:19.549Z,100431.16
2023-01-21T07:51:47.102Z,100436.44
2023-01-21T07:54:14.369Z,100436.44
2023-01-21T07:56:41.203Z,100436.44
2023-01-21T07:59:07.898Z,100444.28
2023-01-21T08:01:34.522Z,100444.28
2023-01-21T08:04:01.492Z,100447.81
2023-01-21T08:06:28.097Z,100450.41
2023-01-21T08:08:57.042Z,100446.97
2023-01-21T08:11:23.613Z,100453.94
2023-01-21T08:13:50.687Z,100447.91
2023-01-21T08:16:18.298Z,100453.97
2023-01-21T08:18:44.697Z,100450.44
2023-01-21T08:21:11.293Z,100454.72
2023-01-21T08:23:37.723Z,100447.69
2023-01-21T08:26:05.841Z,100455.47
2023-01-21T08:28:32.729Z,100458.84
2023-01-21T08:31:04.345Z,100457.91
2023-01-21T08:33:30.762Z,100455.28
2023-01-21T08:36:02.210Z,100460.50
2023-01-21T08:38:29.082Z,100461.38
2023-01-21T08:40:58.186Z,100465.75
2023-01-21T08:43:26.028Z,100479.75
2023-01-21T08:45:56.092Z,100476.22
2023-01-21T08:48:22.741Z,100477.84
2023-01-21T08:50:49.348Z,100484.81
2023-01-21T08:53:15.830Z,100487.41
2023-01-21T08:55:42.277Z,100489.13
2023-01-21T08:58:08.837Z,100489.91
2023-01-21T09:00:35.623Z,100490.75
2023-01-21T09:03:02.086Z,100489.84
2023-01-21T09:05:28.485Z,100495.06
2023-01-21T09:07:57.240Z,100499.34
2023-01-21T09:10:43.163Z,100498.41
2023-01-21T09:13:10.680Z,100500.06
2023-01-21T09:15:41.877Z,100507.03
2023-01-21T09:18:08.773Z,100502.41
2023-01-21T09:20:35.352Z,100500.47
2023-01-21T09:23:01.807Z,100509.75
2023-01-21T09:25:28.398Z,100512.19
2023-01-21T09:27:54.838Z,100514.66
2023-01-21T09:30:21.343Z,100512.88
2023-01-21T09:32:47.746Z,100522.47
2023-01-21T09:35:14.761Z,100515.38
2023-01-21T09:37:41.465Z,100525.78
2023-01-21T09:40:16.349Z,100529.22
2023-01-21T09:42:43.152Z,100533.59
2023-01-21T09:45:13.871Z,100531.59
2023-01-21T09:47:43.170Z,100537.69
2023-01-21T09:50:19.393Z,100540.41
2023-01-21T09:53:03.005Z,100543.00
2023-01-21T09:55:47.023Z,100542.88
2023-01-21T09:58:26.848Z,100544.53
2023-01-21T10:00:56.951Z,100558.44
2023-01-21T10:03:41.157Z,100561.75
2023-01-21T10:06:49.162Z,100552.72
2023-01-21T10:09:28.287Z,100558.69
2023-01-21T10:12:19.289Z,100555.59
2023-01-21T10:15:41.587Z,100566.19
2023-01-21T10:18:23.345Z,100560.25
2023-01-21T10:20:56.366Z,100563.38
2023-01-21T10:23:38.818Z,100558.44
2023-01-21T10:26:11.806Z,100554.53
2023-01-21T10:28:41.995Z,100548.97
2023-01-21T10:31:27.134Z,100552.00
2023-01-21T10:33:54.880Z,100552.75
2023-01-21T10:36:40.176Z,100552.66
2023-01-21T10:39:17.259Z,100547.44
2023-01-21T10:42:08.196Z,100553.69
2023-01-21T10:45:08.644Z,100553.34
2023-01-21T10:48:16.695Z,100555.63
2023-01-21T10:50:54.407Z,100562.63
2023-01-21T10:53:34.218Z,100558.41
2023-01-21T10:56:03.313Z,100559.22
2023-01-21T10:58:36.801Z,100563.84
2023-01-21T11:01:07.746Z,100561.94
2023-01-21T11:03:41.305Z,100558.34
2023-01-21T11:06:12.385Z,100556.53
2023-01-21T11:08:41.135Z,100555.19
2023-01-21T11:11:08.628Z,100564.78
2023-01-21T11:13:35.465Z,100558.47
2023-01-21T11:16:02.191Z,100560.25
2023-01-21T11:18:42.053Z,100561.09
2023-01-21T11:21:17.412Z,100564.69
2023-01-21T11:23:54.881Z,100565.06
2023-01-21T11:26:25.651Z,100555.94
2023-01-21T11:29:15.323Z,100555.47
2023-01-21T11:31:44.751Z,100559.44
2023-01-21T11:34:15.303Z,100555.94
2023-01-21T11:37:08.218Z,100552.31
2023-01-21T11:39:38.934Z,100547.75
2023-01-21T11:42:11.953Z,100544.25
2023-01-21T11:44:57.529Z,100544.91
2023-01-21T11:47:51.108Z,100542.06
2023-01-21T11:50:34.585Z,100535.56
2023-01-21T11:53:06.783Z,100538.09
2023-01-21T11:55:39.822Z,100535.22
2023-01-21T11:58:15.486Z,100534.09
2023-01-21T12:00:45.769Z,100531.34
2023-01-21T12:03:18.250Z,100526.81
2023-01-21T12:05:48.907Z,100537.44
2023-01-21T12:08:27.075Z,100533.44
2023-01-21T12:10:56.176Z,100532.63
2023-01-21T12:13:45.359Z,100539.44
2023-01-21T12:16:44.503Z,100524.66
2023-01-21T12:19:32.277Z,100521.53
2023-01-21T12:22:17.362Z,100521.38
2023-01-21T12:24:49.861Z,100522.19
2023-01-21T12:27:54.209Z,100525.44
2023-01-21T12:30:38.787Z,100514.66
2023-01-21T12:33:20.926Z,100507.53
2023-01-21T12:35:57.879Z,100515.34
2023-01-21T12:38:45.576Z,100514.03
2023-01-21T12:41:30.713Z,100508.34
2023-01-21T12:44:22.242Z,100519.97
2023-01-21T12:46:52.765Z,100522.31
2023-01-21T12:49:26.289Z,100517.16
2023-01-21T12:52:06.209Z,100518.34
2023-01-21T12:54:38.494Z,100523.47
2023-01-21T12:57:47.761Z,100524.06
2023-01-21T13:00:24.492Z,100514.84
2023-01-21T13:03:16.127Z,100521.72
2023-01-21T13:06:00.334Z,100519.47
2023-01-21T13:08:59.910Z,100528.94
2023-01-21T13:11:32.449Z,100531.06
2023-01-21T13:14:07.751Z,100529.38
2023-01-21T13:16:43.105Z,100524.88
2023-01-21T13:19:13.796Z,100534.44
2023-01-21T13:22:01.571Z,100536.53
2023-01-21T13:24:44.186Z,100531.03
2023-01-21T13:27:20.433Z,100538.69
2023-01-21T13:30:01.243Z,100543.16
2023-01-21T13:32:48.902Z,100542.34
2023-01-21T13:35:41.206Z,100535.44
2023-01-21T13:38:07.506Z,100539.75
2023-01-21T13:41:12.307Z,100545.75
2023-01-21T13:43:56.828Z,100547.25
2023-01-21T13:47:04.980Z,100536.06
2023-01-21T13:49:59.738Z,100541.72
2023-01-21T13:53:03.510Z,100547.59
2023-01-21T13:55:56.605Z,100535.97
2023-01-21T13:58:48.007Z,100544.00
2023-01-21T14:01:27.757Z,100547.25
2023-01-21T14:04:11.666Z,100544.00
2023-01-21T14:07:04.942Z,100554.56
2023-01-21T14:09:45.749Z,100556.03
2023-01-21T14:12:29.335Z,100551.69
2023-01-21T14:15:01.489Z,100554.19
2023-01-21T14:18:05.947Z,100561.09
2023-01-21T14:20:41.554Z,100568.97
2023-01-21T14:23:29.389Z,100562.97
2023-01-21T14:26:12.485Z,100572.91
2023-01-21T14:29:06.544Z,100562.94
2023-01-21T14:31:39.898Z,100557.34
2023-01-21T14:34:18.095Z,100550.44
2023-01-21T14:36:59.587Z,100543.38
2023-01-21T14:39:42.968Z,100554.00
2023-01-21T14:42:12.544Z,100549.72
2023-01-21T14:44:40.571Z,100553.09
2023-01-21T14:47:39.917Z,100565.28
2023-01-21T14:50:08.456Z,100546.78
2023-01-21T14:52:44.915Z,100542.06
2023-01-21T14:55:31.113Z,100546.44
2023-01-21T14:58:00.929Z,100549.97
2023-01-21T15:00:32.619Z,100543.03
2023-01-21T15:03:02.013Z,100540.63
2023-01-21T15:05:36.763Z,100542.56
2023-01-21T15:08:11.756Z,100551.00
2023-01-21T15:10:39.771Z,100553.91
2023-01-21T15:13:26.410Z,100557.34
2023-01-21T15:16:33.035Z,100554.53
2023-01-21T15:19:08.104Z,100567.75
2023-01-21T15:21:45.470Z,100559.72
2023-01-21T15:24:26.064Z,100555.16
2023-01-21T15:27:15.961Z,100554.25
2023-01-21T15:30:06.681Z,100555.13
2023-01-21T15:32:36.756Z,100556.38
2023-01-21T15:35:32.929Z,100554.09
2023-01-21T15:38:02.936Z,100560.47
2023-01-21T15:40:37.633Z,100579.13
2023-01-21T15:43:19.249Z,100570.44
2023-01-21T15:46:04.404Z,100578.41
2023-01-21T15:48:57.483Z,100575.16
2023-01-21T15:51:27.122Z,100571.97
2023-01-21T15:54:12.033Z,100570.22
2023-01-21T15:56:50.919Z,100570.28
2023-01-21T15:59:49.760Z,100577.09
2023-01-21T16:02:19.810Z,100580.00
2023-01-21T16:04:51.644Z,100576.59
2023-01-21T16:07:31.565Z,100576.78
2023-01-21T16:10:03.868Z,100573.75
2023-01-21T16:12:45.902Z,100575.84
2023-01-21T16:15:33.883Z,100581.81
2023-01-21T16:18:31.138Z,100582.84
2023-01-21T16:21:00.233Z,100583.72
2023-01-21T16:23:32.556Z,100584.66
2023-01-21T16:25:58.960Z,100583.00
2023-01-21T16:28:25.572Z,100586.63
2023-01-21T16:30:58.912Z,100588.69
2023-01-21T16:33:25.584Z,100592.34
2023-01-21T16:35:56.720Z,100599.97
2023-01-21T16:38:29.001Z,100603.50
2023-01-21T16:41:18.260Z,100593.00
2023-01-21T16:43:45.656Z,100592.44
2023-01-21T16:46:15.003Z,100607.69
2023-01-21T16:48:41.965Z,100593.28
2023-01-21T16:51:32.551Z,100596.13
2023-01-21T16:54:17.477Z,100597.22
2023-01-21T16:56:49.721Z,100596.34
2023-01-21T16:59:21.513Z,100593.06
2023-01-21T17:01:49.251Z,100602.94
2023-01-21T17:04:15.917Z,100596.78
2023-01-21T17:06:45.239Z,100611.75
2023-01-21T17:09:37.960Z,100618.97
2023-01-21T17:12:16.902Z,100622.63
2023-01-21T17:14:43.393Z,100621.00
2023-01-21T17:17:10.166Z,100626.16
2023-01-21T17:19:44.981Z,100635.84
2023-01-21T17:22:19.234Z,100630.56
2023-01-21T17:25:02.552Z,100627.00
2023-01-21T17:27:30.365Z,100639.28
2023-01-21T17:30:18.689Z,100624.34
2023-01-21T17:32:56.112Z,100626.06
2023-01-21T17:35:25.750Z,100626.22
2023-01-21T17:37:59.551Z,100627.28
2023-01-21T17:40:36.646Z,100620.38
2023-01-21T17:43:29.806Z,100616.06
2023-01-21T17:45:57.260Z,100622.91
2023-01-21T17:48:31.131Z,100630.66
2023-01-21T17:51:19.134Z,100630.59
2023-01-21T17:53:56.986Z,100629.69
2023-01-21T17:56:49.789Z,100637.66
2023-01-21T17:59:34.116Z,100649.16
2023-01-21T18:02:04.778Z,100647.22
2023-01-21T18:04:31.495Z,100650.81
2023-01-21T18:06:58.165Z,100648.41
2023-01-21T18:09:25.510Z,100656.38
2023-01-21T18:11:54.001Z,100658.09
2023-01-21T18:14:23.800Z,100644.09
2023-01-21T18:16:50.890Z,100652.06
2023-01-21T18:19:37.660Z,100641.56
2023-01-21T18:22:06.849Z,100657.28
2023-01-21T18:24:35.397Z,100649.38
2023-01-21T18:27:02.484Z,100658.13
2023-01-21T18:29:30.643Z,100659.94
2023-01-21T18:31:58.418Z,100654.78
2023-01-21T18:34:25.137Z,100654.84
2023-01-21T18:36:51.753Z,100661.00
2023-01-21T18:39:20.065Z,100665.47
2023-01-21T18:41:46.605Z,100647.84
2023-01-21T18:44:13.794Z,100644.28
2023-01-21T18:46:44.428Z,100649.41
2023-01-21T18:49:21.110Z,100650.88
2023-01-21T18:51:47.885Z,100654.56
2023-01-21T18:54:16.020Z,100660.75
2023-01-21T18:56:43.680Z,100657.22
2023-01-21T18:59:15.065Z,100643.13
2023-01-21T19:01:43.284Z,100643.97
2023-01-21T19:04:14.230Z,100649.00
2023-01-21T19:06:40.931Z,100638.41
2023-01-21T19:09:23.691Z,100635.63
2023-01-21T19:11:50.801Z,100640.06
2023-01-21T19:14:17.566Z,100642.78
2023-01-21T19:16:44.797Z,100648.59
2023-01-21T19:19:16.559Z,100651.69
2023-01-21T19:21:43.124Z,100649.78
2023-01-21T19:24:12.152Z,100654.22
2023-01-21T19:26:39.248Z,100640.34
2023-01-21T19:29:13.292Z,100643.94
2023-01-21T19:31:39.807Z,100641.41
2023-01-21T19:34:06.250Z,100645.78
2023-01-21T19:36:33.101Z,100647.66
2023-01-21T19:39:01.809Z,100638.69
2023-01-21T19:41:28.521Z,100634.28
2023-01-21T19:43:55.086Z,100625.56
2023-01-21T19:46:23.706Z,100622.06
2023-01-21T19:48:52.210Z,100625.59
2023-01-21T19:51:18.976Z,100616.06
2023-01-21T19:53:45.759Z,100617.72
2023-01-21T19:56:20.488Z,100629.06
2023-01-21T19:58:48.420Z,100633.44
2023-01-21T20:01:14.894Z,100631.56
2023-01-21T20:03:54.715Z,100622.50
2023-01-21T20:06:25.476Z,100628.91
2023-01-21T20:08:52.407Z,100619.16
2023-01-21T20:11:19.090Z,100621.06
2023-01-21T20:13:45.494Z,100622.97
2023-01-21T20:16:16.771Z,100624.84
2023-01-21T20:18:44.054Z,100628.09
2023-01-21T20:21:10.723Z,100615.91
2023-01-21T20:23:38.761Z,100605.59
2023-01-21T20:26:08.468Z,100612.66
2023-01-21T20:28:37.410Z,100610.84
2023-01-21T20:31:07.144Z,100612.41
2023-01-21T20:33:35.802Z,100600.31
2023-01-21T20:36:05.527Z,100609.94
2023-01-21T20:38:34.984Z,100611.44
2023-01-21T20:41:03.271Z,100608.22
2023-01-21T20:43:30.086Z,100616.16
2023-01-21T20:46:01.486Z,100608.50
2023-01-21T20:48:35.839Z,100593.25
2023-01-21T20:51:02.988Z,100594.31
2023-01-21T20:53:30.728Z,100587.91
2023-01-21T20:56:00.800Z,100597.44
2023-01-21T20:58:28.090Z,100585.22
2023-01-21T21:00:55.015Z,100585.78
2023-01-21T21:03:21.736Z,100593.97
2023-01-21T21:05:49.089Z,100588.50
2023-01-21T21:08:21.443Z,100573.72
2023-01-21T21:10:50.542Z,100573.69
2023-01-21T21:13:17.356Z,100579.72
2023-01-21T21:15:46.442Z,100593.91
2023-01-21T21:18:15.001Z,100582.31
2023-01-21T21:20:42.379Z,100590.28
2023-01-21T21:23:13.716Z,100592.09
2023-01-21T21:25:47.502Z,100578.72
2023-01-21T21:28:16.362Z,100597.19
2023-01-21T21:30:43.844Z,100598.97
2023-01-21T21:33:22.228Z,100593.69
2023-01-21T21:35:49.782Z,100586.63
2023-01-21T21:38:18.304Z,100597.25
2023-01-21T21:40:46.736Z,100593.94
2023-01-21T21:43:32.301Z,100577.91
2023-01-21T21:46:30.108Z,100588.50
2023-01-21T21:48:56.554Z,100589.28
2023-01-21T21:51:24.054Z,100581.53
2023-01-21T21:53:51.195Z,100586.72
2023-01-21T21:56:20.518Z,100582.97
2023-01-21T21:58:48.008Z,100585.75
2023-01-21T22:01:24.029Z,100593.56
2023-01-21T22:03:51.726Z,100588.25
2023-01-21T22:06:20.684Z,100592.50
2023-01-21T22:08:48.474Z,100587.22
2023-01-21T22:11:18.702Z,100587.22
2023-01-21T22:13:50.065Z,100580.41
2023-01-21T22:16:21.890Z,100594.25
2023-01-21T22:18:48.384Z,100581.19
2023-01-21T22:21:17.808Z,100593.41
2023-01-21T22:23:44.721Z,100600.63
2023-01-21T22:26:13.635Z,100597.91
2023-01-21T22:28:41.091Z,100608.06
2023-01-21T22:31:15.672Z,100602.72
2023-01-21T22:33:42.372Z,100603.84
2023-01-21T22:36:17.855Z,100601.41
2023-01-21T22:38:44.831Z,100595.00
2023-01-21T22:41:16.388Z,100593.22
2023-01-21T22:43:48.256Z,100582.84
2023-01-21T22:46:20.724Z,100586.25
2023-01-21T22:48:47.277Z,100581.81
2023-01-21T22:51:15.963Z,100580.44
2023-01-21T22:53:45.254Z,100576.63
2023-01-21T22:56:14.469Z,100567.75
2023-01-21T22:58:41.302Z,100565.78
2023-01-21T23:01:19.773Z,100566.81
2023-01-21T23:03:46.274Z,100563.94
2023-01-21T23:06:13.061Z,100563.84
2023-01-21T23:08:39.439Z,100562.88
2023-01-21T23:11:08.449Z,100560.59
2023-01-21T23:13:35.222Z,100558.84
2023-01-21T23:16:01.970Z,100547.44
2023-01-21T23:18:29.274Z,100549.28
2023-01-21T23:20:56.316Z,100551.13
2023-01-21T23:23:24.574Z,100545.50
2023-01-21T23:25:51.232Z,100537.03
2023-01-21T23:28:17.744Z,100541.13
2023-01-21T23:30:44.458Z,100536.69
2023-01-21T23:33:11.630Z,100544.50
2023-01-21T23:35:38.503Z,100535.78
2023-01-21T23:38:04.954Z,100533.75
2023-01-21T23:40:31.439Z,100537.16
2023-01-21T23:42:57.844Z,100530.38
2023-01-21T23:45:24.530Z,100534.59
2023-01-21T23:47:51.028Z,100527.69
2023-01-21T23:50:17.965Z,100540.66
2023-01-21T23:52:44.547Z,100530.91
2023-01-21T23:55:12.008Z,100529.63
2023-01-21T23:57:38.513Z,100541.75
